Loire Princesse — FM6242 — position and weather

sailwx.info

Track history (hours):
 
Tides and Currents Weather Stations Pressure Air Temp Water Temp Dewpoint Dewpoint Depression Visibility Wind Speed Wind Dir Waves Ship Positions

Loire Princesse

Last reported at 2018-Jun-25 15:30 UTC. Time now 2018-Jun-25 15:53 UTC.
Position N 47°12' W 001°46'.

Length 90 m; draft 0.7 m.

Type: Ship. MMSI: 226010880.

Date/timePositionNaut miles runAvg speedWind from/ knotsBaromVisibWave heightAir tempDewpointWater temp
2018-Jun-25 15:30N 47°12' W 001°46'3 5.9
2018-Jun-25 15:01N 47°14' W 001°50'3 6.2
2018-Jun-25 14:30N 47°16' W 001°52'3 6.1
2018-Jun-25 14:01N 47°17' W 001°57'3 6.6
2018-Jun-25 13:30N 47°18' W 002°02'4 7.2
2018-Jun-25 13:00N 47°18' W 002°07'4 6.9
2018-Jun-25 12:29N 47°16' W 002°11'1 1.2
2018-Jun-25 11:53N 47°17' W 002°12'1 0.2
2018-Jun-25 07:42N 47°17' W 002°12'0 0.0
2018-Jun-25 03:31N 47°17' W 002°12'0 0.0
2018-Jun-25 03:28N 47°17' W 002°12'0 0.0
2018-Jun-24 22:37N 47°17' W 002°12'0 2.9
2018-Jun-24 22:30N 47°17' W 002°12'1 1.1
2018-Jun-24 21:59N 47°16' W 002°12'1 2.8
2018-Jun-24 21:30N 47°17' W 002°10'3 6.7
2018-Jun-24 21:00N 47°18' W 002°06'3 6.9
2018-Jun-24 20:31N 47°17' W 002°01'4 8.9
2018-Jun-24 20:00N 47°17' W 001°54'4 8.6
2018-Jun-24 19:30N 47°14' W 001°50'5 9.0
2018-Jun-24 19:00N 47°12' W 001°43'5 9.2
2018-Jun-24 18:31N 47°12' W 001°37'2 3.9
2018-Jun-24 18:00N 47°12' W 001°34'0 0.0
2018-Jun-24 17:30N 47°12' W 001°34'0 0.0
2018-Jun-24 17:00N 47°12' W 001°34'0 0.0
2018-Jun-24 16:28N 47°12' W 001°34'0 0.0
2018-Jun-24 16:00N 47°12' W 001°34'0 0.0
2018-Jun-24 15:30N 47°12' W 001°34'0 0.0
2018-Jun-24 15:00N 47°12' W 001°34'0 0.0
2018-Jun-24 14:30N 47°12' W 001°34'0 0.0
2018-Jun-24 13:56N 47°12' W 001°34'0 0.0
2018-Jun-24 13:26N 47°12' W 001°34'0 0.0
2018-Jun-24 13:00N 47°12' W 001°34'0 0.0
2018-Jun-24 12:29N 47°12' W 001°34'0 0.0
2018-Jun-24 11:47N 47°12' W 001°34'0 0.0
2018-Jun-24 11:30N 47°12' W 001°34'0 0.0
2018-Jun-24 11:00N 47°12' W 001°34'0 0.0
2018-Jun-24 10:30N 47°12' W 001°34'0 0.0
2018-Jun-24 10:00N 47°12' W 001°34'0 0.0
2018-Jun-24 09:27N 47°12' W 001°34'0 0.0
2018-Jun-24 08:56N 47°12' W 001°34'0 0.0
2018-Jun-24 08:30N 47°12' W 001°34'0 0.0
2018-Jun-24 08:00N 47°12' W 001°34'0 0.0
2018-Jun-24 07:29N 47°12' W 001°34'0 0.0
2018-Jun-24 07:00N 47°12' W 001°34'0 0.0
2018-Jun-24 06:30N 47°12' W 001°34'0 0.0
2018-Jun-24 05:59N 47°12' W 001°34'0 0.0
2018-Jun-24 05:30N 47°12' W 001°34'0 0.0
2018-Jun-24 05:00N 47°12' W 001°34'0 0.0
2018-Jun-24 04:30N 47°12' W 001°34'0 0.0
2018-Jun-24 04:00N 47°12' W 001°34'0 0.0
2018-Jun-24 03:26N 47°12' W 001°34'0 0.0
2018-Jun-24 03:00N 47°12' W 001°34'0 0.0
2018-Jun-24 02:29N 47°12' W 001°34'0 0.0
2018-Jun-24 02:00N 47°12' W 001°34'0 0.0
2018-Jun-24 01:30N 47°12' W 001°34'0 0.0
2018-Jun-24 00:59N 47°12' W 001°34'0 0.0
2018-Jun-24 00:30N 47°12' W 001°34'0 0.0
2018-Jun-24 00:00N 47°12' W 001°34'0 0.0
2018-Jun-23 23:30N 47°12' W 001°34'0 0.0
2018-Jun-23 22:59N 47°12' W 001°34'0 0.0
2018-Jun-23 22:30N 47°12' W 001°34'0 0.0
2018-Jun-23 22:00N 47°12' W 001°34'0 0.0
2018-Jun-23 21:30N 47°12' W 001°34'0 0.0
2018-Jun-23 20:59N 47°12' W 001°34'1 2.3
2018-Jun-23 20:31N 47°13' W 001°33'3 6.3
2018-Jun-23 20:00N 47°14' W 001°28'4 6.9
2018-Jun-23 19:25N 47°17' W 001°24'3 0.1
2018-Jun-21 19:28N 47°18' W 001°21'3 4.6
2018-Jun-21 18:55N 47°17' W 001°24'2 4.5
2018-Jun-21 18:31N 47°15' W 001°26'2 4.4
2018-Jun-21 18:00N 47°14' W 001°28'2 4.7
2018-Jun-21 17:30N 47°13' W 001°31'2 3.9
2018-Jun-21 17:00N 47°12' W 001°34'0 0.1
2018-Jun-21 16:28N 47°12' W 001°34'0 0.0
2018-Jun-21 16:00N 47°12' W 001°34'2 4.3
2018-Jun-21 15:31N 47°12' W 001°37'3 5.3
2018-Jun-21 15:00N 47°12' W 001°41'3 5.6
2018-Jun-21 14:31N 47°12' W 001°45'3 5.8
2018-Jun-21 14:00N 47°13' W 001°49'3 6.1
2018-Jun-21 13:30N 47°16' W 001°52'3 5.9
2018-Jun-21 13:00N 47°17' W 001°56'3 5.3
2018-Jun-21 12:30N 47°17' W 001°59'2 3.0
2018-Jun-21 12:00N 47°17' W 002°02'0 0.0
2018-Jun-21 11:30N 47°17' W 002°02'1 1.4
2018-Jun-21 10:59N 47°18' W 002°02'3 5.8
2018-Jun-21 10:30N 47°18' W 002°07'3 5.7
2018-Jun-21 10:00N 47°17' W 002°10'1 1.6
2018-Jun-21 09:12N 47°16' W 002°12'0 0.0
2018-Jun-21 00:13N 47°16' W 002°12'0 0.0
2018-Jun-20 23:31N 47°16' W 002°12'0 0.0
2018-Jun-20 23:23N 47°16' W 002°12'0 0.0
2018-Jun-20 22:57N 47°16' W 002°12'0 0.0
2018-Jun-20 22:30N 47°16' W 002°12'0 0.0
2018-Jun-20 21:43N 47°16' W 002°12'0 0.0
2018-Jun-20 21:16N 47°16' W 002°12'0 0.0
2018-Jun-20 20:56N 47°16' W 002°12'0 0.0
2018-Jun-20 19:39N 47°16' W 002°12'0 0.3
2018-Jun-20 19:30N 47°16' W 002°12'0 0.7
2018-Jun-20 18:54N 47°16' W 002°12'2 5.0
2018-Jun-20 18:30N 47°17' W 002°10'3 5.1
2018-Jun-20 17:50N 47°18' W 002°05'2 5.2
2018-Jun-20 17:30N 47°18' W 002°02'1 1.2
2018-Jun-20 17:00N 47°17' W 002°02'0 0.0
2018-Jun-20 16:30N 47°17' W 002°02'0 0.0
2018-Jun-20 15:59N 47°17' W 002°02'0 0.0
2018-Jun-20 15:25N 47°17' W 002°02'0 0.0
2018-Jun-20 14:58N 47°17' W 002°02'0 0.0
2018-Jun-20 14:30N 47°17' W 002°02'0 0.0
2018-Jun-20 14:00N 47°17' W 002°02'0 0.0
2018-Jun-20 13:23N 47°17' W 002°02'0 0.0
2018-Jun-20 12:59N 47°17' W 002°02'3 6.3
2018-Jun-20 12:30N 47°17' W 001°57'4 8.2
2018-Jun-20 12:00N 47°16' W 001°52'4 7.6
2018-Jun-20 11:30N 47°13' W 001°48'4 8.0
2018-Jun-20 10:59N 47°12' W 001°42'4 8.2
2018-Jun-20 10:30N 47°12' W 001°36'2 3.1
2018-Jun-20 09:59N 47°12' W 001°34'0 0.0
2018-Jun-20 09:29N 47°12' W 001°34'0 0.0
2018-Jun-20 09:00N 47°12' W 001°34'0 0.0
2018-Jun-20 08:30N 47°12' W 001°34'0 0.0
2018-Jun-20 08:00N 47°12' W 001°34'0 0.0
2018-Jun-20 07:30N 47°12' W 001°34'0 0.0
2018-Jun-20 06:59N 47°12' W 001°34'0 0.0
2018-Jun-20 06:30N 47°12' W 001°34'0 0.0
2018-Jun-20 06:00N 47°12' W 001°34'0 0.0
2018-Jun-20 05:30N 47°12' W 001°34'0 0.0
2018-Jun-20 05:00N 47°12' W 001°34'0 0.0
2018-Jun-20 04:30N 47°12' W 001°34'0 0.0
2018-Jun-20 04:00N 47°12' W 001°34'0 0.0
2018-Jun-20 03:30N 47°12' W 001°34'0 0.0
2018-Jun-20 03:00N 47°12' W 001°34'0 0.0
2018-Jun-20 02:30N 47°12' W 001°34'0 0.0
2018-Jun-20 02:00N 47°12' W 001°34'0 0.0
2018-Jun-20 01:30N 47°12' W 001°34'0 0.0
2018-Jun-20 01:01N 47°12' W 001°34'0 0.0
2018-Jun-20 00:29N 47°12' W 001°34'0 0.0
2018-Jun-20 00:00N 47°12' W 001°34'0 0.0
2018-Jun-19 23:30N 47°12' W 001°34'0 0.0
2018-Jun-19 23:00N 47°12' W 001°34'0 0.0
2018-Jun-19 22:30N 47°12' W 001°34'0 0.0
2018-Jun-19 22:00N 47°12' W 001°34'0 0.0
2018-Jun-19 21:29N 47°12' W 001°34'0 0.0
2018-Jun-19 21:01N 47°12' W 001°34'0 0.0
2018-Jun-19 20:30N 47°12' W 001°34'0 0.0
2018-Jun-19 19:58N 47°12' W 001°34'0 0.0
2018-Jun-19 19:30N 47°12' W 001°34'0 0.0
2018-Jun-19 19:00N 47°12' W 001°34'0 0.0
2018-Jun-19 18:30N 47°12' W 001°34'0 0.3
2018-Jun-19 17:59N 47°13' W 001°34'0 0.0
2018-Jun-19 17:30N 47°13' W 001°34'0 0.0
2018-Jun-19 17:00N 47°13' W 001°34'0 0.0
2018-Jun-19 16:30N 47°13' W 001°34'0 0.0
2018-Jun-19 15:59N 47°13' W 001°34'0 0.0
2018-Jun-19 15:30N 47°13' W 001°34'0 0.0
2018-Jun-19 14:53N 47°13' W 001°34'0 0.0
2018-Jun-19 14:30N 47°13' W 001°34'0 0.0
2018-Jun-19 14:00N 47°13' W 001°34'0 0.0
2018-Jun-19 13:30N 47°13' W 001°34'0 0.0
2018-Jun-19 13:00N 47°13' W 001°34'0 0.0
2018-Jun-19 12:30N 47°13' W 001°34'0 0.0
2018-Jun-19 12:00N 47°13' W 001°34'0 0.0
2018-Jun-19 11:30N 47°13' W 001°34'0 0.0
2018-Jun-19 10:59N 47°13' W 001°34'0 0.0
2018-Jun-19 10:30N 47°13' W 001°34'0 0.0
2018-Jun-19 10:01N 47°13' W 001°34'0 0.0
2018-Jun-19 09:30N 47°13' W 001°34'0 0.0
2018-Jun-19 09:00N 47°13' W 001°34'0 0.0
2018-Jun-19 08:30N 47°13' W 001°34'0 0.0
2018-Jun-19 08:00N 47°13' W 001°34'0 0.0
2018-Jun-19 07:30N 47°13' W 001°34'0 0.0
2018-Jun-19 06:59N 47°13' W 001°34'0 0.0
2018-Jun-19 06:30N 47°13' W 001°34'0 0.0
2018-Jun-19 06:00N 47°13' W 001°34'0 0.0
2018-Jun-19 05:30N 47°13' W 001°34'0 0.0
2018-Jun-19 05:00N 47°13' W 001°34'0 0.0
2018-Jun-19 04:30N 47°13' W 001°34'0 0.0
2018-Jun-19 04:00N 47°13' W 001°34'0 0.0
2018-Jun-19 03:30N 47°13' W 001°34'0 0.0
2018-Jun-19 02:59N 47°13' W 001°34'0 0.0
2018-Jun-19 02:30N 47°13' W 001°34'0 0.0
2018-Jun-19 02:01N 47°13' W 001°34'0 0.0
2018-Jun-19 01:30N 47°13' W 001°34'0 0.0
2018-Jun-19 01:00N 47°13' W 001°34'0 0.0
2018-Jun-19 00:29N 47°13' W 001°34'0 0.0
2018-Jun-19 00:00N 47°13' W 001°34'0 0.0
2018-Jun-18 23:30N 47°13' W 001°34'0 0.0
2018-Jun-18 23:00N 47°13' W 001°34'0 0.0
2018-Jun-18 22:30N 47°13' W 001°34'0 0.0
2018-Jun-18 21:59N 47°13' W 001°34'0 0.0
2018-Jun-18 21:29N 47°13' W 001°34'0 0.0
2018-Jun-18 21:00N 47°13' W 001°34'0 0.0
2018-Jun-18 20:29N 47°13' W 001°34'0 0.0
2018-Jun-18 20:00N 47°13' W 001°34'0 0.0
2018-Jun-18 19:31N 47°13' W 001°34'0 0.0
2018-Jun-18 19:00N 47°13' W 001°34'0 0.0
2018-Jun-18 18:30N 47°13' W 001°34'0 0.0
2018-Jun-18 18:00N 47°13' W 001°34'0 0.0
2018-Jun-18 17:30N 47°13' W 001°34'0 0.0
2018-Jun-18 17:00N 47°13' W 001°34'0 0.0
2018-Jun-18 16:30N 47°13' W 001°34'0 0.0
2018-Jun-18 16:00N 47°13' W 001°34'1 2.9
2018-Jun-18 15:30N 47°13' W 001°32'4 7.0
2018-Jun-18 15:00N 47°15' W 001°27'  
Track history (hours):
 
Tides and Currents Weather Stations Pressure Air Temp Water Temp Dewpoint Dewpoint Depression Visibility Wind Speed Wind Dir Waves Ship Positions

Loire Princesse

Last reported at 2018-Jun-25 15:30 UTC. Time now 2018-Jun-25 15:53 UTC.
Position N 47°12' W 001°46'.

Length 90 m; draft 0.7 m.

Type: Ship. MMSI: 226010880.

Date/timePositionNaut miles runAvg speedWind from/ knotsBaromVisibWave heightAir tempDewpointWater temp
2018-Jun-25 15:30N 47°12' W 001°46'3 5.9
2018-Jun-25 15:01N 47°14' W 001°50'3 6.2
2018-Jun-25 14:30N 47°16' W 001°52'3 6.1
2018-Jun-25 14:01N 47°17' W 001°57'3 6.6
2018-Jun-25 13:30N 47°18' W 002°02'4 7.2
2018-Jun-25 13:00N 47°18' W 002°07'4 6.9
2018-Jun-25 12:29N 47°16' W 002°11'1 1.2
2018-Jun-25 11:53N 47°17' W 002°12'1 0.2
2018-Jun-25 07:42N 47°17' W 002°12'0 0.0
2018-Jun-25 03:31N 47°17' W 002°12'0 0.0
2018-Jun-25 03:28N 47°17' W 002°12'0 0.0
2018-Jun-24 22:37N 47°17' W 002°12'0 2.9
2018-Jun-24 22:30N 47°17' W 002°12'1 1.1
2018-Jun-24 21:59N 47°16' W 002°12'1 2.8
2018-Jun-24 21:30N 47°17' W 002°10'3 6.7
2018-Jun-24 21:00N 47°18' W 002°06'3 6.9
2018-Jun-24 20:31N 47°17' W 002°01'4 8.9
2018-Jun-24 20:00N 47°17' W 001°54'4 8.6
2018-Jun-24 19:30N 47°14' W 001°50'5 9.0
2018-Jun-24 19:00N 47°12' W 001°43'5 9.2
2018-Jun-24 18:31N 47°12' W 001°37'2 3.9
2018-Jun-24 18:00N 47°12' W 001°34'0 0.0
2018-Jun-24 17:30N 47°12' W 001°34'0 0.0
2018-Jun-24 17:00N 47°12' W 001°34'0 0.0
2018-Jun-24 16:28N 47°12' W 001°34'0 0.0
2018-Jun-24 16:00N 47°12' W 001°34'0 0.0
2018-Jun-24 15:30N 47°12' W 001°34'0 0.0
2018-Jun-24 15:00N 47°12' W 001°34'0 0.0
2018-Jun-24 14:30N 47°12' W 001°34'0 0.0
2018-Jun-24 13:56N 47°12' W 001°34'0 0.0
2018-Jun-24 13:26N 47°12' W 001°34'0 0.0
2018-Jun-24 13:00N 47°12' W 001°34'0 0.0
2018-Jun-24 12:29N 47°12' W 001°34'0 0.0
2018-Jun-24 11:47N 47°12' W 001°34'0 0.0
2018-Jun-24 11:30N 47°12' W 001°34'0 0.0
2018-Jun-24 11:00N 47°12' W 001°34'0 0.0
2018-Jun-24 10:30N 47°12' W 001°34'0 0.0
2018-Jun-24 10:00N 47°12' W 001°34'0 0.0
2018-Jun-24 09:27N 47°12' W 001°34'0 0.0
2018-Jun-24 08:56N 47°12' W 001°34'0 0.0
2018-Jun-24 08:30N 47°12' W 001°34'0 0.0
2018-Jun-24 08:00N 47°12' W 001°34'0 0.0
2018-Jun-24 07:29N 47°12' W 001°34'0 0.0
2018-Jun-24 07:00N 47°12' W 001°34'0 0.0
2018-Jun-24 06:30N 47°12' W 001°34'0 0.0
2018-Jun-24 05:59N 47°12' W 001°34'0 0.0
2018-Jun-24 05:30N 47°12' W 001°34'0 0.0
2018-Jun-24 05:00N 47°12' W 001°34'0 0.0
2018-Jun-24 04:30N 47°12' W 001°34'0 0.0
2018-Jun-24 04:00N 47°12' W 001°34'0 0.0
2018-Jun-24 03:26N 47°12' W 001°34'0 0.0
2018-Jun-24 03:00N 47°12' W 001°34'0 0.0
2018-Jun-24 02:29N 47°12' W 001°34'0 0.0
2018-Jun-24 02:00N 47°12' W 001°34'0 0.0
2018-Jun-24 01:30N 47°12' W 001°34'0 0.0
2018-Jun-24 00:59N 47°12' W 001°34'0 0.0
2018-Jun-24 00:30N 47°12' W 001°34'0 0.0
2018-Jun-24 00:00N 47°12' W 001°34'0 0.0
2018-Jun-23 23:30N 47°12' W 001°34'0 0.0
2018-Jun-23 22:59N 47°12' W 001°34'0 0.0
2018-Jun-23 22:30N 47°12' W 001°34'0 0.0
2018-Jun-23 22:00N 47°12' W 001°34'0 0.0
2018-Jun-23 21:30N 47°12' W 001°34'0 0.0
2018-Jun-23 20:59N 47°12' W 001°34'1 2.3
2018-Jun-23 20:31N 47°13' W 001°33'3 6.3
2018-Jun-23 20:00N 47°14' W 001°28'4 6.9
2018-Jun-23 19:25N 47°17' W 001°24'3 0.1
2018-Jun-21 19:28N 47°18' W 001°21'3 4.6
2018-Jun-21 18:55N 47°17' W 001°24'2 4.5
2018-Jun-21 18:31N 47°15' W 001°26'2 4.4
2018-Jun-21 18:00N 47°14' W 001°28'2 4.7
2018-Jun-21 17:30N 47°13' W 001°31'2 3.9
2018-Jun-21 17:00N 47°12' W 001°34'0 0.1
2018-Jun-21 16:28N 47°12' W 001°34'0 0.0
2018-Jun-21 16:00N 47°12' W 001°34'2 4.3
2018-Jun-21 15:31N 47°12' W 001°37'3 5.3
2018-Jun-21 15:00N 47°12' W 001°41'3 5.6
2018-Jun-21 14:31N 47°12' W 001°45'3 5.8
2018-Jun-21 14:00N 47°13' W 001°49'3 6.1
2018-Jun-21 13:30N 47°16' W 001°52'3 5.9
2018-Jun-21 13:00N 47°17' W 001°56'3 5.3
2018-Jun-21 12:30N 47°17' W 001°59'2 3.0
2018-Jun-21 12:00N 47°17' W 002°02'0 0.0
2018-Jun-21 11:30N 47°17' W 002°02'1 1.4
2018-Jun-21 10:59N 47°18' W 002°02'3 5.8
2018-Jun-21 10:30N 47°18' W 002°07'3 5.7
2018-Jun-21 10:00N 47°17' W 002°10'1 1.6
2018-Jun-21 09:12N 47°16' W 002°12'0 0.0
2018-Jun-21 00:13N 47°16' W 002°12'0 0.0
2018-Jun-20 23:31N 47°16' W 002°12'0 0.0
2018-Jun-20 23:23N 47°16' W 002°12'0 0.0
2018-Jun-20 22:57N 47°16' W 002°12'0 0.0
2018-Jun-20 22:30N 47°16' W 002°12'0 0.0
2018-Jun-20 21:43N 47°16' W 002°12'0 0.0
2018-Jun-20 21:16N 47°16' W 002°12'0 0.0
2018-Jun-20 20:56N 47°16' W 002°12'0 0.0
2018-Jun-20 19:39N 47°16' W 002°12'0 0.3
2018-Jun-20 19:30N 47°16' W 002°12'0 0.7
2018-Jun-20 18:54N 47°16' W 002°12'2 5.0
2018-Jun-20 18:30N 47°17' W 002°10'3 5.1
2018-Jun-20 17:50N 47°18' W 002°05'2 5.2
2018-Jun-20 17:30N 47°18' W 002°02'1 1.2
2018-Jun-20 17:00N 47°17' W 002°02'0 0.0
2018-Jun-20 16:30N 47°17' W 002°02'0 0.0
2018-Jun-20 15:59N 47°17' W 002°02'0 0.0
2018-Jun-20 15:25N 47°17' W 002°02'0 0.0
2018-Jun-20 14:58N 47°17' W 002°02'0 0.0
2018-Jun-20 14:30N 47°17' W 002°02'0 0.0
2018-Jun-20 14:00N 47°17' W 002°02'0 0.0
2018-Jun-20 13:23N 47°17' W 002°02'0 0.0
2018-Jun-20 12:59N 47°17' W 002°02'3 6.3
2018-Jun-20 12:30N 47°17' W 001°57'4 8.2
2018-Jun-20 12:00N 47°16' W 001°52'4 7.6
2018-Jun-20 11:30N 47°13' W 001°48'4 8.0
2018-Jun-20 10:59N 47°12' W 001°42'4 8.2
2018-Jun-20 10:30N 47°12' W 001°36'2 3.1
2018-Jun-20 09:59N 47°12' W 001°34'0 0.0
2018-Jun-20 09:29N 47°12' W 001°34'0 0.0
2018-Jun-20 09:00N 47°12' W 001°34'0 0.0
2018-Jun-20 08:30N 47°12' W 001°34'0 0.0
2018-Jun-20 08:00N 47°12' W 001°34'0 0.0
2018-Jun-20 07:30N 47°12' W 001°34'0 0.0
2018-Jun-20 06:59N 47°12' W 001°34'0 0.0
2018-Jun-20 06:30N 47°12' W 001°34'0 0.0
2018-Jun-20 06:00N 47°12' W 001°34'0 0.0
2018-Jun-20 05:30N 47°12' W 001°34'0 0.0
2018-Jun-20 05:00N 47°12' W 001°34'0 0.0
2018-Jun-20 04:30N 47°12' W 001°34'0 0.0
2018-Jun-20 04:00N 47°12' W 001°34'0 0.0
2018-Jun-20 03:30N 47°12' W 001°34'0 0.0
2018-Jun-20 03:00N 47°12' W 001°34'0 0.0
2018-Jun-20 02:30N 47°12' W 001°34'0 0.0
2018-Jun-20 02:00N 47°12' W 001°34'0 0.0
2018-Jun-20 01:30N 47°12' W 001°34'0 0.0
2018-Jun-20 01:01N 47°12' W 001°34'0 0.0
2018-Jun-20 00:29N 47°12' W 001°34'0 0.0
2018-Jun-20 00:00N 47°12' W 001°34'0 0.0
2018-Jun-19 23:30N 47°12' W 001°34'0 0.0
2018-Jun-19 23:00N 47°12' W 001°34'0 0.0
2018-Jun-19 22:30N 47°12' W 001°34'0 0.0
2018-Jun-19 22:00N 47°12' W 001°34'0 0.0
2018-Jun-19 21:29N 47°12' W 001°34'0 0.0
2018-Jun-19 21:01N 47°12' W 001°34'0 0.0
2018-Jun-19 20:30N 47°12' W 001°34'0 0.0
2018-Jun-19 19:58N 47°12' W 001°34'0 0.0
2018-Jun-19 19:30N 47°12' W 001°34'0 0.0
2018-Jun-19 19:00N 47°12' W 001°34'0 0.0
2018-Jun-19 18:30N 47°12' W 001°34'0 0.3
2018-Jun-19 17:59N 47°13' W 001°34'0 0.0
2018-Jun-19 17:30N 47°13' W 001°34'0 0.0
2018-Jun-19 17:00N 47°13' W 001°34'0 0.0
2018-Jun-19 16:30N 47°13' W 001°34'0 0.0
2018-Jun-19 15:59N 47°13' W 001°34'0 0.0
2018-Jun-19 15:30N 47°13' W 001°34'0 0.0
2018-Jun-19 14:53N 47°13' W 001°34'0 0.0
2018-Jun-19 14:30N 47°13' W 001°34'0 0.0
2018-Jun-19 14:00N 47°13' W 001°34'0 0.0
2018-Jun-19 13:30N 47°13' W 001°34'0 0.0
2018-Jun-19 13:00N 47°13' W 001°34'0 0.0
2018-Jun-19 12:30N 47°13' W 001°34'0 0.0
2018-Jun-19 12:00N 47°13' W 001°34'0 0.0
2018-Jun-19 11:30N 47°13' W 001°34'0 0.0
2018-Jun-19 10:59N 47°13' W 001°34'0 0.0
2018-Jun-19 10:30N 47°13' W 001°34'0 0.0
2018-Jun-19 10:01N 47°13' W 001°34'0 0.0
2018-Jun-19 09:30N 47°13' W 001°34'0 0.0
2018-Jun-19 09:00N 47°13' W 001°34'0 0.0
2018-Jun-19 08:30N 47°13' W 001°34'0 0.0
2018-Jun-19 08:00N 47°13' W 001°34'0 0.0
2018-Jun-19 07:30N 47°13' W 001°34'0 0.0
2018-Jun-19 06:59N 47°13' W 001°34'0 0.0
2018-Jun-19 06:30N 47°13' W 001°34'0 0.0
2018-Jun-19 06:00N 47°13' W 001°34'0 0.0
2018-Jun-19 05:30N 47°13' W 001°34'0 0.0
2018-Jun-19 05:00N 47°13' W 001°34'0 0.0
2018-Jun-19 04:30N 47°13' W 001°34'0 0.0
2018-Jun-19 04:00N 47°13' W 001°34'0 0.0
2018-Jun-19 03:30N 47°13' W 001°34'0 0.0
2018-Jun-19 02:59N 47°13' W 001°34'0 0.0
2018-Jun-19 02:30N 47°13' W 001°34'0 0.0
2018-Jun-19 02:01N 47°13' W 001°34'0 0.0
2018-Jun-19 01:30N 47°13' W 001°34'0 0.0
2018-Jun-19 01:00N 47°13' W 001°34'0 0.0
2018-Jun-19 00:29N 47°13' W 001°34'0 0.0
2018-Jun-19 00:00N 47°13' W 001°34'0 0.0
2018-Jun-18 23:30N 47°13' W 001°34'0 0.0
2018-Jun-18 23:00N 47°13' W 001°34'0 0.0
2018-Jun-18 22:30N 47°13' W 001°34'0 0.0
2018-Jun-18 21:59N 47°13' W 001°34'0 0.0
2018-Jun-18 21:29N 47°13' W 001°34'0 0.0
2018-Jun-18 21:00N 47°13' W 001°34'0 0.0
2018-Jun-18 20:29N 47°13' W 001°34'0 0.0
2018-Jun-18 20:00N 47°13' W 001°34'0 0.0
2018-Jun-18 19:31N 47°13' W 001°34'0 0.0
2018-Jun-18 19:00N 47°13' W 001°34'0 0.0
2018-Jun-18 18:30N 47°13' W 001°34'0 0.0
2018-Jun-18 18:00N 47°13' W 001°34'0 0.0
2018-Jun-18 17:30N 47°13' W 001°34'0 0.0
2018-Jun-18 17:00N 47°13' W 001°34'0 0.0
2018-Jun-18 16:30N 47°13' W 001°34'0 0.0
2018-Jun-18 16:00N 47°13' W 001°34'1 2.9
2018-Jun-18 15:30N 47°13' W 001°32'4 7.0
2018-Jun-18 15:00N 47°15' W 001°27'  

Dump ship's entire track history